sensor_id;sensor_type;location;lat;lon;timestamp;P1;durP1;ratioP1;P2;durP2;ratioP2
39950;SDS011;25629;51.444;-2.606;2022-12-18T00:00:59;14.20;;;7.68;;
39950;SDS011;25629;51.444;-2.606;2022-12-18T00:03:25;15.30;;;8.32;;
39950;SDS011;25629;51.444;-2.606;2022-12-18T00:05:51;15.35;;;8.45;;
39950;SDS011;25629;51.444;-2.606;2022-12-18T00:10:44;14.40;;;8.48;;
39950;SDS011;25629;51.444;-2.606;2022-12-18T00:13:10;16.52;;;7.20;;
39950;SDS011;25629;51.444;-2.606;2022-12-18T00:15:37;14.63;;;8.05;;
39950;SDS011;25629;51.444;-2.606;2022-12-18T00:18:04;12.63;;;7.55;;
39950;SDS011;25629;51.444;-2.606;2022-12-18T00:20:30;16.50;;;7.75;;
39950;SDS011;25629;51.444;-2.606;2022-12-18T00:22:56;18.77;;;8.38;;
39950;SDS011;25629;51.444;-2.606;2022-12-18T00:25:21;16.27;;;8.13;;
39950;SDS011;25629;51.444;-2.606;2022-12-18T00:27:47;16.48;;;8.02;;
39950;SDS011;25629;51.444;-2.606;2022-12-18T00:30:13;15.82;;;7.95;;
39950;SDS011;25629;51.444;-2.606;2022-12-18T00:32:39;17.08;;;7.75;;
39950;SDS011;25629;51.444;-2.606;2022-12-18T00:35:05;13.02;;;6.70;;
39950;SDS011;25629;51.444;-2.606;2022-12-18T00:37:33;14.90;;;8.10;;
39950;SDS011;25629;51.444;-2.606;2022-12-18T00:39:58;12.32;;;7.57;;
39950;SDS011;25629;51.444;-2.606;2022-12-18T00:42:24;13.55;;;6.97;;
39950;SDS011;25629;51.444;-2.606;2022-12-18T00:45:09;14.40;;;7.32;;
39950;SDS011;25629;51.444;-2.606;2022-12-18T00:47:34;13.82;;;7.18;;
39950;SDS011;25629;51.444;-2.606;2022-12-18T00:50:00;13.20;;;7.32;;
39950;SDS011;25629;51.444;-2.606;2022-12-18T00:52:26;10.35;;;6.60;;
39950;SDS011;25629;51.444;-2.606;2022-12-18T00:54:51;13.43;;;6.90;;
39950;SDS011;25629;51.444;-2.606;2022-12-18T00:57:17;14.13;;;6.70;;
39950;SDS011;25629;51.444;-2.606;2022-12-18T00:59:43;10.30;;;6.25;;
39950;SDS011;25629;51.444;-2.606;2022-12-18T01:02:08;11.27;;;6.70;;
39950;SDS011;25629;51.444;-2.606;2022-12-18T01:04:34;16.15;;;7.82;;
39950;SDS011;25629;51.444;-2.606;2022-12-18T01:07:00;11.18;;;6.60;;
39950;SDS011;25629;51.444;-2.606;2022-12-18T01:09:25;15.07;;;6.68;;
39950;SDS011;25629;51.444;-2.606;2022-12-18T01:11:51;9.50;;;6.20;;
39950;SDS011;25629;51.444;-2.606;2022-12-18T01:14:17;12.82;;;6.25;;
39950;SDS011;25629;51.444;-2.606;2022-12-18T01:16:43;13.82;;;5.85;;
39950;SDS011;25629;51.444;-2.606;2022-12-18T01:19:09;12.85;;;6.18;;
39950;SDS011;25629;51.444;-2.606;2022-12-18T01:21:35;16.58;;;8.27;;
39950;SDS011;25629;51.444;-2.606;2022-12-18T01:26:26;12.32;;;6.55;;
39950;SDS011;25629;51.444;-2.606;2022-12-18T01:28:55;15.13;;;7.93;;
39950;SDS011;25629;51.444;-2.606;2022-12-18T01:31:26;13.95;;;6.57;;
39950;SDS011;25629;51.444;-2.606;2022-12-18T01:33:54;13.68;;;6.28;;
39950;SDS011;25629;51.444;-2.606;2022-12-18T01:38:48;13.57;;;6.60;;
39950;SDS011;25629;51.444;-2.606;2022-12-18T01:41:16;11.80;;;6.95;;
39950;SDS011;25629;51.444;-2.606;2022-12-18T01:43:54;11.32;;;6.65;;
39950;SDS011;25629;51.444;-2.606;2022-12-18T01:46:22;13.90;;;6.45;;
39950;SDS011;25629;51.444;-2.606;2022-12-18T01:48:51;10.23;;;5.20;;
39950;SDS011;25629;51.444;-2.606;2022-12-18T01:51:20;14.10;;;7.93;;
39950;SDS011;25629;51.444;-2.606;2022-12-18T01:53:46;11.85;;;5.90;;
39950;SDS011;25629;51.444;-2.606;2022-12-18T01:56:13;11.75;;;6.32;;
39950;SDS011;25629;51.444;-2.606;2022-12-18T02:01:23;13.90;;;7.43;;
39950;SDS011;25629;51.444;-2.606;2022-12-18T02:03:49;12.43;;;7.22;;
39950;SDS011;25629;51.444;-2.606;2022-12-18T02:06:19;13.30;;;7.47;;
39950;SDS011;25629;51.444;-2.606;2022-12-18T02:09:01;13.95;;;7.35;;
39950;SDS011;25629;51.444;-2.606;2022-12-18T02:14:17;9.48;;;5.13;;
39950;SDS011;25629;51.444;-2.606;2022-12-18T02:28:03;9.93;;;6.13;;
39950;SDS011;25629;51.444;-2.606;2022-12-18T02:30:33;16.60;;;6.35;;
39950;SDS011;25629;51.444;-2.606;2022-12-18T02:33:01;16.58;;;6.93;;
39950;SDS011;25629;51.444;-2.606;2022-12-18T02:35:31;13.30;;;6.25;;
39950;SDS011;25629;51.444;-2.606;2022-12-18T02:37:58;10.63;;;6.13;;
39950;SDS011;25629;51.444;-2.606;2022-12-18T02:40:25;11.77;;;6.05;;
39950;SDS011;25629;51.444;-2.606;2022-12-18T02:42:53;10.30;;;6.10;;
39950;SDS011;25629;51.444;-2.606;2022-12-18T02:45:19;12.32;;;7.35;;
39950;SDS011;25629;51.444;-2.606;2022-12-18T02:47:46;14.55;;;6.47;;
39950;SDS011;25629;51.444;-2.606;2022-12-18T03:01:38;12.43;;;6.28;;
39950;SDS011;25629;51.444;-2.606;2022-12-18T03:07:09;12.10;;;6.03;;
39950;SDS011;25629;51.444;-2.606;2022-12-18T03:09:41;12.07;;;6.47;;
39950;SDS011;25629;51.444;-2.606;2022-12-18T03:12:14;11.73;;;6.75;;
39950;SDS011;25629;51.444;-2.606;2022-12-18T03:17:44;13.05;;;7.25;;
39950;SDS011;25629;51.444;-2.606;2022-12-18T03:20:15;14.32;;;6.95;;
39950;SDS011;25629;51.444;-2.606;2022-12-18T03:22:44;15.35;;;6.00;;
39950;SDS011;25629;51.444;-2.606;2022-12-18T03:25:14;14.40;;;6.90;;
39950;SDS011;25629;51.444;-2.606;2022-12-18T03:27:44;11.82;;;6.55;;
39950;SDS011;25629;51.444;-2.606;2022-12-18T03:30:14;15.18;;;7.30;;
39950;SDS011;25629;51.444;-2.606;2022-12-18T03:35:37;12.65;;;6.13;;
39950;SDS011;25629;51.444;-2.606;2022-12-18T03:38:06;12.27;;;6.65;;
39950;SDS011;25629;51.444;-2.606;2022-12-18T03:40:53;12.38;;;6.70;;
39950;SDS011;25629;51.444;-2.606;2022-12-18T03:43:32;10.77;;;6.22;;
39950;SDS011;25629;51.444;-2.606;2022-12-18T03:46:17;10.57;;;5.68;;
39950;SDS011;25629;51.444;-2.606;2022-12-18T03:48:56;10.40;;;6.65;;
39950;SDS011;25629;51.444;-2.606;2022-12-18T03:51:30;9.95;;;5.68;;
39950;SDS011;25629;51.444;-2.606;2022-12-18T03:54:07;13.20;;;5.95;;
39950;SDS011;25629;51.444;-2.606;2022-12-18T03:57:18;9.50;;;5.53;;
39950;SDS011;25629;51.444;-2.606;2022-12-18T03:59:26;14.15;;;5.75;;
39950;SDS011;25629;51.444;-2.606;2022-12-18T04:01:53;11.02;;;5.32;;
39950;SDS011;25629;51.444;-2.606;2022-12-18T04:04:22;13.38;;;5.90;;
39950;SDS011;25629;51.444;-2.606;2022-12-18T04:06:50;14.07;;;6.68;;
39950;SDS011;25629;51.444;-2.606;2022-12-18T04:09:17;11.70;;;6.20;;
39950;SDS011;25629;51.444;-2.606;2022-12-18T04:11:44;12.57;;;6.78;;
39950;SDS011;25629;51.444;-2.606;2022-12-18T04:14:11;12.57;;;6.35;;
39950;SDS011;25629;51.444;-2.606;2022-12-18T04:16:37;12.70;;;6.22;;
39950;SDS011;25629;51.444;-2.606;2022-12-18T04:19:03;12.88;;;5.80;;
39950;SDS011;25629;51.444;-2.606;2022-12-18T04:23:54;16.58;;;6.53;;
39950;SDS011;25629;51.444;-2.606;2022-12-18T04:26:20;14.73;;;6.47;;
39950;SDS011;25629;51.444;-2.606;2022-12-18T04:28:46;16.73;;;7.70;;
39950;SDS011;25629;51.444;-2.606;2022-12-18T04:31:11;12.55;;;6.40;;
39950;SDS011;25629;51.444;-2.606;2022-12-18T04:33:37;14.43;;;7.75;;
39950;SDS011;25629;51.444;-2.606;2022-12-18T04:36:03;13.23;;;7.78;;
39950;SDS011;25629;51.444;-2.606;2022-12-18T04:38:29;13.85;;;7.88;;
39950;SDS011;25629;51.444;-2.606;2022-12-18T04:40:54;21.23;;;7.90;;
39950;SDS011;25629;51.444;-2.606;2022-12-18T04:43:20;15.85;;;8.07;;
39950;SDS011;25629;51.444;-2.606;2022-12-18T04:45:46;14.82;;;7.57;;
39950;SDS011;25629;51.444;-2.606;2022-12-18T04:48:11;16.33;;;7.97;;
39950;SDS011;25629;51.444;-2.606;2022-12-18T04:50:37;14.43;;;7.55;;
39950;SDS011;25629;51.444;-2.606;2022-12-18T04:53:03;17.75;;;7.80;;
39950;SDS011;25629;51.444;-2.606;2022-12-18T04:55:29;16.05;;;7.57;;
39950;SDS011;25629;51.444;-2.606;2022-12-18T04:57:54;15.50;;;8.95;;
39950;SDS011;25629;51.444;-2.606;2022-12-18T05:00:20;19.77;;;8.93;;
39950;SDS011;25629;51.444;-2.606;2022-12-18T05:02:47;18.35;;;8.38;;
39950;SDS011;25629;51.444;-2.606;2022-12-18T05:05:13;14.93;;;8.02;;
39950;SDS011;25629;51.444;-2.606;2022-12-18T05:07:38;15.02;;;8.85;;
39950;SDS011;25629;51.444;-2.606;2022-12-18T05:10:07;15.73;;;7.97;;
39950;SDS011;25629;51.444;-2.606;2022-12-18T05:12:33;15.65;;;8.98;;
39950;SDS011;25629;51.444;-2.606;2022-12-18T05:15:19;22.30;;;9.40;;
39950;SDS011;25629;51.444;-2.606;2022-12-18T05:17:44;16.83;;;8.95;;
39950;SDS011;25629;51.444;-2.606;2022-12-18T05:20:10;19.30;;;9.27;;
39950;SDS011;25629;51.444;-2.606;2022-12-18T05:22:36;14.88;;;8.30;;
39950;SDS011;25629;51.444;-2.606;2022-12-18T05:25:01;13.55;;;8.25;;
39950;SDS011;25629;51.444;-2.606;2022-12-18T05:27:27;20.25;;;9.38;;
39950;SDS011;25629;51.444;-2.606;2022-12-18T05:29:53;18.92;;;9.88;;
39950;SDS011;25629;51.444;-2.606;2022-12-18T05:32:18;18.50;;;8.68;;
39950;SDS011;25629;51.444;-2.606;2022-12-18T05:34:44;18.45;;;9.52;;
39950;SDS011;25629;51.444;-2.606;2022-12-18T05:37:10;18.55;;;9.30;;
39950;SDS011;25629;51.444;-2.606;2022-12-18T05:39:35;18.58;;;9.52;;
39950;SDS011;25629;51.444;-2.606;2022-12-18T05:42:01;23.05;;;9.48;;
39950;SDS011;25629;51.444;-2.606;2022-12-18T05:44:27;20.90;;;8.70;;
39950;SDS011;25629;51.444;-2.606;2022-12-18T05:46:52;17.55;;;9.18;;
39950;SDS011;25629;51.444;-2.606;2022-12-18T05:49:18;20.50;;;10.07;;
39950;SDS011;25629;51.444;-2.606;2022-12-18T05:51:44;19.20;;;9.85;;
39950;SDS011;25629;51.444;-2.606;2022-12-18T05:54:10;16.98;;;9.82;;
39950;SDS011;25629;51.444;-2.606;2022-12-18T05:56:36;19.25;;;9.73;;
39950;SDS011;25629;51.444;-2.606;2022-12-18T05:59:01;20.15;;;10.07;;
39950;SDS011;25629;51.444;-2.606;2022-12-18T06:01:27;19.23;;;10.15;;
39950;SDS011;25629;51.444;-2.606;2022-12-18T06:03:53;24.13;;;11.23;;
39950;SDS011;25629;51.444;-2.606;2022-12-18T06:06:21;21.80;;;10.93;;
39950;SDS011;25629;51.444;-2.606;2022-12-18T06:08:48;19.08;;;9.88;;
39950;SDS011;25629;51.444;-2.606;2022-12-18T06:11:19;22.98;;;10.70;;
39950;SDS011;25629;51.444;-2.606;2022-12-18T06:13:46;19.52;;;11.13;;
39950;SDS011;25629;51.444;-2.606;2022-12-18T06:16:15;24.42;;;12.23;;
39950;SDS011;25629;51.444;-2.606;2022-12-18T06:18:40;20.20;;;10.77;;
39950;SDS011;25629;51.444;-2.606;2022-12-18T06:21:06;22.70;;;11.68;;
39950;SDS011;25629;51.444;-2.606;2022-12-18T06:23:32;20.13;;;11.25;;
39950;SDS011;25629;51.444;-2.606;2022-12-18T06:25:58;23.15;;;11.38;;
39950;SDS011;25629;51.444;-2.606;2022-12-18T06:28:23;20.65;;;10.85;;
39950;SDS011;25629;51.444;-2.606;2022-12-18T06:30:49;26.30;;;10.98;;
39950;SDS011;25629;51.444;-2.606;2022-12-18T06:33:15;32.65;;;10.65;;
39950;SDS011;25629;51.444;-2.606;2022-12-18T06:35:41;20.05;;;11.23;;
39950;SDS011;25629;51.444;-2.606;2022-12-18T06:38:07;23.65;;;11.82;;
39950;SDS011;25629;51.444;-2.606;2022-12-18T06:40:33;24.27;;;11.63;;
39950;SDS011;25629;51.444;-2.606;2022-12-18T06:42:59;25.52;;;12.20;;
39950;SDS011;25629;51.444;-2.606;2022-12-18T06:45:24;20.88;;;11.43;;
39950;SDS011;25629;51.444;-2.606;2022-12-18T06:47:50;22.08;;;11.07;;
39950;SDS011;25629;51.444;-2.606;2022-12-18T06:50:16;22.15;;;11.20;;
39950;SDS011;25629;51.444;-2.606;2022-12-18T06:52:42;21.85;;;11.02;;
39950;SDS011;25629;51.444;-2.606;2022-12-18T06:55:09;25.60;;;11.90;;
39950;SDS011;25629;51.444;-2.606;2022-12-18T06:57:35;19.50;;;10.48;;
39950;SDS011;25629;51.444;-2.606;2022-12-18T07:02:28;21.43;;;10.67;;
39950;SDS011;25629;51.444;-2.606;2022-12-18T07:04:54;20.55;;;10.65;;
39950;SDS011;25629;51.444;-2.606;2022-12-18T07:07:20;18.67;;;10.60;;
39950;SDS011;25629;51.444;-2.606;2022-12-18T07:09:45;25.75;;;11.18;;
39950;SDS011;25629;51.444;-2.606;2022-12-18T07:12:11;25.63;;;10.75;;
39950;SDS011;25629;51.444;-2.606;2022-12-18T07:14:37;21.83;;;11.18;;
39950;SDS011;25629;51.444;-2.606;2022-12-18T07:17:02;20.65;;;10.48;;
39950;SDS011;25629;51.444;-2.606;2022-12-18T07:19:28;21.98;;;11.45;;
39950;SDS011;25629;51.444;-2.606;2022-12-18T07:21:54;23.95;;;11.90;;
39950;SDS011;25629;51.444;-2.606;2022-12-18T07:24:20;21.83;;;12.40;;
39950;SDS011;25629;51.444;-2.606;2022-12-18T07:26:46;20.55;;;10.85;;
39950;SDS011;25629;51.444;-2.606;2022-12-18T07:29:12;25.23;;;11.73;;
39950;SDS011;25629;51.444;-2.606;2022-12-18T07:31:38;23.85;;;11.25;;
39950;SDS011;25629;51.444;-2.606;2022-12-18T07:34:04;20.83;;;11.73;;
39950;SDS011;25629;51.444;-2.606;2022-12-18T07:36:29;24.15;;;11.52;;
39950;SDS011;25629;51.444;-2.606;2022-12-18T07:38:55;23.52;;;11.93;;
39950;SDS011;25629;51.444;-2.606;2022-12-18T07:41:21;33.63;;;16.63;;
39950;SDS011;25629;51.444;-2.606;2022-12-18T07:43:47;27.05;;;14.23;;
39950;SDS011;25629;51.444;-2.606;2022-12-18T07:46:13;20.83;;;11.18;;
39950;SDS011;25629;51.444;-2.606;2022-12-18T07:48:41;24.58;;;12.18;;
39950;SDS011;25629;51.444;-2.606;2022-12-18T07:51:07;26.00;;;11.93;;
39950;SDS011;25629;51.444;-2.606;2022-12-18T07:53:34;25.10;;;12.77;;
39950;SDS011;25629;51.444;-2.606;2022-12-18T07:56:01;24.30;;;11.40;;
39950;SDS011;25629;51.444;-2.606;2022-12-18T07:58:30;25.17;;;12.65;;
39950;SDS011;25629;51.444;-2.606;2022-12-18T08:01:09;22.42;;;10.52;;
39950;SDS011;25629;51.444;-2.606;2022-12-18T08:03:36;21.35;;;11.07;;
39950;SDS011;25629;51.444;-2.606;2022-12-18T08:06:03;20.92;;;11.25;;
39950;SDS011;25629;51.444;-2.606;2022-12-18T08:08:31;23.20;;;10.52;;
39950;SDS011;25629;51.444;-2.606;2022-12-18T08:10:58;25.15;;;11.93;;
39950;SDS011;25629;51.444;-2.606;2022-12-18T08:13:24;21.83;;;11.53;;
39950;SDS011;25629;51.444;-2.606;2022-12-18T08:16:06;20.52;;;10.48;;
39950;SDS011;25629;51.444;-2.606;2022-12-18T08:18:33;23.05;;;11.20;;
39950;SDS011;25629;51.444;-2.606;2022-12-18T08:21:09;18.02;;;9.07;;
39950;SDS011;25629;51.444;-2.606;2022-12-18T08:23:35;22.05;;;10.18;;
39950;SDS011;25629;51.444;-2.606;2022-12-18T08:26:01;19.33;;;10.07;;
39950;SDS011;25629;51.444;-2.606;2022-12-18T08:28:27;18.33;;;9.95;;
39950;SDS011;25629;51.444;-2.606;2022-12-18T08:30:53;25.10;;;10.13;;
39950;SDS011;25629;51.444;-2.606;2022-12-18T08:33:18;20.70;;;9.65;;
39950;SDS011;25629;51.444;-2.606;2022-12-18T08:35:44;21.88;;;8.88;;
39950;SDS011;25629;51.444;-2.606;2022-12-18T08:38:10;19.75;;;9.52;;
39950;SDS011;25629;51.444;-2.606;2022-12-18T08:40:35;19.63;;;9.93;;
39950;SDS011;25629;51.444;-2.606;2022-12-18T08:43:01;20.10;;;9.38;;
39950;SDS011;25629;51.444;-2.606;2022-12-18T08:45:45;20.02;;;9.73;;
39950;SDS011;25629;51.444;-2.606;2022-12-18T08:48:11;20.55;;;9.88;;
39950;SDS011;25629;51.444;-2.606;2022-12-18T08:50:37;21.17;;;10.65;;
39950;SDS011;25629;51.444;-2.606;2022-12-18T08:53:02;16.65;;;9.70;;
39950;SDS011;25629;51.444;-2.606;2022-12-18T08:55:28;18.92;;;8.57;;
39950;SDS011;25629;51.444;-2.606;2022-12-18T08:57:54;22.25;;;9.73;;
39950;SDS011;25629;51.444;-2.606;2022-12-18T09:00:20;20.17;;;10.75;;
39950;SDS011;25629;51.444;-2.606;2022-12-18T09:02:45;21.63;;;11.00;;
39950;SDS011;25629;51.444;-2.606;2022-12-18T09:05:11;20.60;;;10.15;;
39950;SDS011;25629;51.444;-2.606;2022-12-18T09:07:37;21.10;;;10.68;;
39950;SDS011;25629;51.444;-2.606;2022-12-18T09:10:03;22.73;;;11.40;;
39950;SDS011;25629;51.444;-2.606;2022-12-18T09:14:54;22.75;;;10.55;;
39950;SDS011;25629;51.444;-2.606;2022-12-18T09:17:21;26.02;;;10.57;;
39950;SDS011;25629;51.444;-2.606;2022-12-18T09:19:47;23.58;;;10.20;;
39950;SDS011;25629;51.444;-2.606;2022-12-18T09:22:12;22.60;;;10.27;;
39950;SDS011;25629;51.444;-2.606;2022-12-18T09:24:38;22.33;;;9.55;;
39950;SDS011;25629;51.444;-2.606;2022-12-18T09:27:04;19.00;;;10.13;;
39950;SDS011;25629;51.444;-2.606;2022-12-18T09:29:30;22.10;;;10.10;;
39950;SDS011;25629;51.444;-2.606;2022-12-18T09:31:55;16.35;;;9.13;;
39950;SDS011;25629;51.444;-2.606;2022-12-18T09:34:21;19.08;;;10.20;;
39950;SDS011;25629;51.444;-2.606;2022-12-18T09:36:47;19.58;;;9.50;;
39950;SDS011;25629;51.444;-2.606;2022-12-18T09:39:13;19.40;;;9.75;;
39950;SDS011;25629;51.444;-2.606;2022-12-18T09:41:43;19.77;;;8.43;;
39950;SDS011;25629;51.444;-2.606;2022-12-18T09:44:15;20.60;;;11.05;;
39950;SDS011;25629;51.444;-2.606;2022-12-18T09:46:59;17.48;;;8.95;;
39950;SDS011;25629;51.444;-2.606;2022-12-18T09:49:40;19.90;;;10.63;;
39950;SDS011;25629;51.444;-2.606;2022-12-18T09:52:27;20.83;;;9.65;;
39950;SDS011;25629;51.444;-2.606;2022-12-18T09:55:05;24.17;;;9.48;;
39950;SDS011;25629;51.444;-2.606;2022-12-18T09:57:54;17.98;;;8.80;;
39950;SDS011;25629;51.444;-2.606;2022-12-18T10:00:24;25.95;;;9.70;;
39950;SDS011;25629;51.444;-2.606;2022-12-18T10:02:51;18.85;;;9.48;;
39950;SDS011;25629;51.444;-2.606;2022-12-18T10:05:44;15.85;;;8.57;;
39950;SDS011;25629;51.444;-2.606;2022-12-18T10:08:46;27.73;;;10.93;;
39950;SDS011;25629;51.444;-2.606;2022-12-18T10:16:41;15.90;;;9.07;;
39950;SDS011;25629;51.444;-2.606;2022-12-18T10:19:34;20.45;;;10.32;;
39950;SDS011;25629;51.444;-2.606;2022-12-18T10:22:33;21.15;;;11.20;;
39950;SDS011;25629;51.444;-2.606;2022-12-18T10:25:24;21.98;;;9.43;;
39950;SDS011;25629;51.444;-2.606;2022-12-18T10:28:17;22.60;;;11.13;;
39950;SDS011;25629;51.444;-2.606;2022-12-18T10:30:44;20.80;;;11.38;;
39950;SDS011;25629;51.444;-2.606;2022-12-18T10:33:16;21.73;;;10.95;;
39950;SDS011;25629;51.444;-2.606;2022-12-18T10:35:44;21.50;;;11.70;;
39950;SDS011;25629;51.444;-2.606;2022-12-18T10:40:54;22.15;;;10.82;;
39950;SDS011;25629;51.444;-2.606;2022-12-18T10:51:02;21.67;;;10.57;;
39950;SDS011;25629;51.444;-2.606;2022-12-18T10:55:58;27.13;;;11.00;;
39950;SDS011;25629;51.444;-2.606;2022-12-18T10:58:25;21.30;;;11.90;;
39950;SDS011;25629;51.444;-2.606;2022-12-18T11:01:11;24.17;;;11.90;;
39950;SDS011;25629;51.444;-2.606;2022-12-18T11:03:45;22.77;;;10.88;;
39950;SDS011;25629;51.444;-2.606;2022-12-18T11:06:21;26.15;;;11.40;;
39950;SDS011;25629;51.444;-2.606;2022-12-18T11:11:58;25.33;;;12.50;;
39950;SDS011;25629;51.444;-2.606;2022-12-18T11:16:56;21.90;;;12.00;;
39950;SDS011;25629;51.444;-2.606;2022-12-18T11:22:20;24.60;;;11.82;;
39950;SDS011;25629;51.444;-2.606;2022-12-18T11:27:24;22.42;;;12.43;;
39950;SDS011;25629;51.444;-2.606;2022-12-18T11:35:04;25.55;;;12.80;;
39950;SDS011;25629;51.444;-2.606;2022-12-18T11:37:43;23.65;;;12.45;;
39950;SDS011;25629;51.444;-2.606;2022-12-18T11:40:17;28.17;;;13.38;;
39950;SDS011;25629;51.444;-2.606;2022-12-18T11:45:41;22.95;;;11.70;;
39950;SDS011;25629;51.444;-2.606;2022-12-18T11:48:23;26.60;;;14.38;;
39950;SDS011;25629;51.444;-2.606;2022-12-18T11:50:54;29.52;;;14.40;;
39950;SDS011;25629;51.444;-2.606;2022-12-18T11:53:25;26.38;;;13.52;;
39950;SDS011;25629;51.444;-2.606;2022-12-18T11:58:43;26.42;;;13.15;;
39950;SDS011;25629;51.444;-2.606;2022-12-18T12:06:47;28.17;;;15.20;;
39950;SDS011;25629;51.444;-2.606;2022-12-18T12:23:33;17.58;;;10.00;;
39950;SDS011;25629;51.444;-2.606;2022-12-18T12:26:15;81.95;;;17.35;;
39950;SDS011;25629;51.444;-2.606;2022-12-18T12:31:36;16.80;;;8.50;;
39950;SDS011;25629;51.444;-2.606;2022-12-18T12:37:15;14.38;;;6.82;;
39950;SDS011;25629;51.444;-2.606;2022-12-18T12:39:43;13.60;;;8.18;;
39950;SDS011;25629;51.444;-2.606;2022-12-18T12:42:13;13.13;;;7.88;;
39950;SDS011;25629;51.444;-2.606;2022-12-18T12:45:05;14.68;;;8.50;;
39950;SDS011;25629;51.444;-2.606;2022-12-18T12:47:39;14.20;;;8.13;;
39950;SDS011;25629;51.444;-2.606;2022-12-18T12:50:12;11.85;;;7.35;;
39950;SDS011;25629;51.444;-2.606;2022-12-18T12:52:45;10.95;;;7.20;;
39950;SDS011;25629;51.444;-2.606;2022-12-18T12:55:18;14.55;;;8.32;;
39950;SDS011;25629;51.444;-2.606;2022-12-18T12:57:55;13.25;;;6.50;;
39950;SDS011;25629;51.444;-2.606;2022-12-18T13:00:34;12.66;;;6.52;;
39950;SDS011;25629;51.444;-2.606;2022-12-18T13:08:57;11.75;;;7.60;;
39950;SDS011;25629;51.444;-2.606;2022-12-18T13:11:38;11.45;;;7.13;;
39950;SDS011;25629;51.444;-2.606;2022-12-18T13:19:39;19.05;;;11.82;;
39950;SDS011;25629;51.444;-2.606;2022-12-18T13:22:12;10.82;;;7.28;;
39950;SDS011;25629;51.444;-2.606;2022-12-18T13:24:49;12.32;;;6.13;;
39950;SDS011;25629;51.444;-2.606;2022-12-18T13:43:43;7.38;;;5.22;;
39950;SDS011;25629;51.444;-2.606;2022-12-18T13:46:23;16.23;;;5.55;;
39950;SDS011;25629;51.444;-2.606;2022-12-18T13:51:23;4.97;;;3.50;;
39950;SDS011;25629;51.444;-2.606;2022-12-18T13:53:54;5.38;;;3.25;;
39950;SDS011;25629;51.444;-2.606;2022-12-18T13:56:31;9.70;;;5.97;;
39950;SDS011;25629;51.444;-2.606;2022-12-18T13:59:06;8.75;;;4.35;;
39950;SDS011;25629;51.444;-2.606;2022-12-18T14:01:44;6.32;;;5.72;;
39950;SDS011;25629;51.444;-2.606;2022-12-18T14:04:32;5.15;;;4.25;;
39950;SDS011;25629;51.444;-2.606;2022-12-18T14:07:03;4.40;;;2.00;;
39950;SDS011;25629;51.444;-2.606;2022-12-18T14:09:35;4.35;;;1.65;;
39950;SDS011;25629;51.444;-2.606;2022-12-18T14:12:04;4.60;;;2.00;;
39950;SDS011;25629;51.444;-2.606;2022-12-18T14:14:50;1.58;;;1.02;;
39950;SDS011;25629;51.444;-2.606;2022-12-18T14:17:17;1.45;;;1.00;;
39950;SDS011;25629;51.444;-2.606;2022-12-18T14:19:44;3.42;;;1.95;;
39950;SDS011;25629;51.444;-2.606;2022-12-18T14:22:23;3.05;;;1.08;;
39950;SDS011;25629;51.444;-2.606;2022-12-18T14:27:43;1.50;;;0.80;;
39950;SDS011;25629;51.444;-2.606;2022-12-18T14:33:05;4.35;;;0.80;;
39950;SDS011;25629;51.444;-2.606;2022-12-18T14:36:03;1.10;;;0.95;;
39950;SDS011;25629;51.444;-2.606;2022-12-18T14:40:59;2.05;;;0.52;;
39950;SDS011;25629;51.444;-2.606;2022-12-18T14:43:27;1.40;;;0.77;;
39950;SDS011;25629;51.444;-2.606;2022-12-18T14:45:54;1.90;;;1.05;;
39950;SDS011;25629;51.444;-2.606;2022-12-18T14:48:22;1.92;;;0.90;;
39950;SDS011;25629;51.444;-2.606;2022-12-18T14:50:58;1.05;;;0.73;;
39950;SDS011;25629;51.444;-2.606;2022-12-18T14:53:34;3.90;;;0.83;;
39950;SDS011;25629;51.444;-2.606;2022-12-18T14:56:02;2.53;;;1.00;;
39950;SDS011;25629;51.444;-2.606;2022-12-18T14:58:36;1.67;;;1.00;;
39950;SDS011;25629;51.444;-2.606;2022-12-18T15:01:01;3.25;;;0.68;;
39950;SDS011;25629;51.444;-2.606;2022-12-18T15:03:27;0.82;;;0.50;;
39950;SDS011;25629;51.444;-2.606;2022-12-18T15:05:53;2.22;;;0.60;;
39950;SDS011;25629;51.444;-2.606;2022-12-18T15:11:32;2.03;;;0.60;;
39950;SDS011;25629;51.444;-2.606;2022-12-18T15:14:21;3.05;;;1.17;;
39950;SDS011;25629;51.444;-2.606;2022-12-18T15:16:59;2.38;;;0.52;;
39950;SDS011;25629;51.444;-2.606;2022-12-18T15:19:48;1.30;;;0.68;;
39950;SDS011;25629;51.444;-2.606;2022-12-18T15:22:25;4.28;;;0.85;;
39950;SDS011;25629;51.444;-2.606;2022-12-18T15:24:52;3.25;;;0.77;;
39950;SDS011;25629;51.444;-2.606;2022-12-18T15:32:36;1.20;;;0.43;;
39950;SDS011;25629;51.444;-2.606;2022-12-18T15:37:42;1.65;;;0.52;;
39950;SDS011;25629;51.444;-2.606;2022-12-18T15:40:12;1.67;;;0.50;;
39950;SDS011;25629;51.444;-2.606;2022-12-18T15:42:42;1.48;;;0.50;;
39950;SDS011;25629;51.444;-2.606;2022-12-18T15:45:27;1.10;;;0.52;;
39950;SDS011;25629;51.444;-2.606;2022-12-18T15:47:53;1.30;;;0.52;;
39950;SDS011;25629;51.444;-2.606;2022-12-18T15:50:19;1.27;;;0.70;;
39950;SDS011;25629;51.444;-2.606;2022-12-18T15:52:45;2.28;;;0.85;;
39950;SDS011;25629;51.444;-2.606;2022-12-18T15:55:13;2.90;;;0.65;;
39950;SDS011;25629;51.444;-2.606;2022-12-18T15:57:59;1.92;;;0.80;;
39950;SDS011;25629;51.444;-2.606;2022-12-18T16:00:25;1.30;;;0.50;;
39950;SDS011;25629;51.444;-2.606;2022-12-18T16:02:51;1.00;;;0.43;;
39950;SDS011;25629;51.444;-2.606;2022-12-18T16:05:18;2.10;;;0.60;;
39950;SDS011;25629;51.444;-2.606;2022-12-18T16:07:45;0.73;;;0.50;;
39950;SDS011;25629;51.444;-2.606;2022-12-18T16:10:11;2.90;;;0.57;;
39950;SDS011;25629;51.444;-2.606;2022-12-18T16:12:39;1.30;;;0.90;;
39950;SDS011;25629;51.444;-2.606;2022-12-18T16:15:05;3.33;;;0.63;;
39950;SDS011;25629;51.444;-2.606;2022-12-18T16:17:32;3.90;;;0.77;;
39950;SDS011;25629;51.444;-2.606;2022-12-18T16:19:58;0.88;;;0.75;;
39950;SDS011;25629;51.444;-2.606;2022-12-18T16:22:25;2.00;;;0.70;;
39950;SDS011;25629;51.444;-2.606;2022-12-18T16:24:53;1.80;;;0.80;;
39950;SDS011;25629;51.444;-2.606;2022-12-18T16:27:20;2.08;;;1.20;;
39950;SDS011;25629;51.444;-2.606;2022-12-18T16:29:47;4.78;;;1.33;;
39950;SDS011;25629;51.444;-2.606;2022-12-18T16:32:17;2.75;;;1.00;;
39950;SDS011;25629;51.444;-2.606;2022-12-18T16:34:44;1.60;;;0.70;;
39950;SDS011;25629;51.444;-2.606;2022-12-18T16:37:11;2.40;;;1.52;;
39950;SDS011;25629;51.444;-2.606;2022-12-18T16:39:38;4.75;;;1.00;;
39950;SDS011;25629;51.444;-2.606;2022-12-18T16:42:05;3.17;;;1.80;;
39950;SDS011;25629;51.444;-2.606;2022-12-18T16:44:34;2.72;;;1.25;;
39950;SDS011;25629;51.444;-2.606;2022-12-18T16:47:00;2.42;;;1.20;;
39950;SDS011;25629;51.444;-2.606;2022-12-18T16:49:27;3.60;;;1.02;;
39950;SDS011;25629;51.444;-2.606;2022-12-18T16:51:53;1.33;;;0.80;;
39950;SDS011;25629;51.444;-2.606;2022-12-18T16:54:19;2.25;;;0.73;;
39950;SDS011;25629;51.444;-2.606;2022-12-18T16:56:45;2.38;;;0.70;;
39950;SDS011;25629;51.444;-2.606;2022-12-18T16:59:14;0.80;;;0.60;;
39950;SDS011;25629;51.444;-2.606;2022-12-18T17:01:40;2.20;;;1.50;;
39950;SDS011;25629;51.444;-2.606;2022-12-18T17:06:33;1.70;;;0.88;;
39950;SDS011;25629;51.444;-2.606;2022-12-18T17:09:04;2.38;;;0.75;;
39950;SDS011;25629;51.444;-2.606;2022-12-18T17:11:32;2.30;;;0.65;;
39950;SDS011;25629;51.444;-2.606;2022-12-18T17:13:59;3.00;;;0.77;;
39950;SDS011;25629;51.444;-2.606;2022-12-18T17:16:34;2.17;;;0.90;;
39950;SDS011;25629;51.444;-2.606;2022-12-18T17:19:00;2.70;;;0.80;;
39950;SDS011;25629;51.444;-2.606;2022-12-18T17:21:26;7.13;;;3.17;;
39950;SDS011;25629;51.444;-2.606;2022-12-18T17:23:51;2.97;;;2.10;;